Terminal Aerodrome Forecast
Issued by NWS

Home | Current Version | Previous Version | Text Only | Print | Product List | Glossary On
Versions: 1 2 3 4 5 6 7 8 9 10 11 12 13 14 15 16 17 18 19 20 21 22 23 24 25 26 27 28 29
000
FTUS44 KBMX 300202 AAA
TAFTOI
TAF AMD
KTOI 300202Z 3002/3024 25004KT P6SM BKN045 OVC060
     FM300245 32016G27KT 6SM SHRA VCTS OVC040CB
      TEMPO 3003/3005 3SM TSRA OVC035CB
     FM300500 36009G15KT P6SM -SHRA OVC050
     FM300900 VRB03KT 4SM BR BKN100 OVC250
      TEMPO 3010/3013 2SM BR
     FM301400 17006KT P6SM BKN200 OVC250=

USA.gov is the U.S. government's official web portal to all federal, state and local government web resources and services.